Time;durP1;ratioP1;P1;durP2;ratioP2;P2;SDS_P1;SDS_P2;PMS_P1;PMS_P2;Temp;Humidity;BMP_temperature;BMP_pressure;BME280_temperature;BME280_humidity;BME280_pressure;Samples;Min_cycle;Max_cycle;Signal;HPM_P1;HPM_P2
2023/05/22 00:00:40;;;;;;;22.10;15.80;;;;;;;11.90;100.00;92721.38;2107802;28;20024;-80
2023/05/22 00:01:55;;;;;;;20.65;15.68;;;;;;;11.81;100.00;92717.41;2100834;28;20162;-80
2023/05/22 00:03:05;;;;;;;21.95;15.88;;;;;;;11.81;100.00;92714.75;2108784;27;20552;-80
2023/05/22 00:04:12;;;;;;;;;;;;;;;11.81;100.00;92714.75;2111445;28;20032;-80
2023/05/22 00:05:21;;;;;;;20.77;15.00;;;;;;;11.82;100.00;92715.47;2115330;28;19998;-81
2023/05/22 00:06:33;;;;;;;18.10;14.75;;;;;;;11.77;100.00;92716.03;2104114;28;20520;-81
2023/05/22 00:07:44;;;;;;;19.45;14.55;;;;;;;11.78;100.00;92720.19;2100270;28;20048;-79
2023/05/22 00:08:57;;;;;;;17.55;15.38;;;;;;;11.75;100.00;92707.66;2101483;28;20024;-81
2023/05/22 00:10:06;;;;;;;22.38;15.80;;;;;;;11.80;100.00;92715.16;2103316;28;20050;-80
2023/05/22 00:11:14;;;;;;;19.42;15.38;;;;;;;11.83;100.00;92704.34;2103814;28;20119;-82
2023/05/22 00:12:24;;;;;;;21.58;16.52;;;;;;;11.80;100.00;92699.09;2102908;28;20032;-80
2023/05/22 00:13:34;;;;;;;18.60;15.35;;;;;;;11.78;100.00;92704.13;2098637;28;20042;-81
2023/05/22 00:14:44;;;;;;;23.27;16.00;;;;;;;11.70;100.00;92698.25;2100597;27;20036;-81
2023/05/22 00:15:54;;;;;;;19.10;14.80;;;;;;;11.70;100.00;92700.94;2101337;28;20031;-81
2023/05/22 00:17:05;;;;;;;;;;;;;;;11.71;100.00;92699.00;2102886;28;20083;-81
2023/05/22 00:18:13;;;;;;;19.30;14.93;;;;;;;11.64;100.00;92702.69;2106765;28;19912;-82
2023/05/22 00:19:22;;;;;;;21.10;15.00;;;;;;;11.63;100.00;92705.78;2101352;28;20021;-83
2023/05/22 00:20:31;;;;;;;19.08;16.02;;;;;;;11.58;100.00;92701.72;2106572;28;20051;-82
2023/05/22 00:21:45;;;;;;;19.73;14.93;;;;;;;11.59;100.00;92701.28;2107689;27;20027;-80
2023/05/22 00:22:56;;;;;;;23.17;16.45;;;;;;;11.59;100.00;92706.66;2122891;27;20501;-81
2023/05/22 00:24:05;;;;;;;21.83;15.95;;;;;;;11.55;100.00;92703.34;2118492;27;20030;-80
2023/05/22 00:25:18;;;;;;;23.27;15.13;;;;;;;11.55;100.00;92703.34;2112300;28;20054;-81
2023/05/22 00:26:29;;;;;;;19.45;15.43;;;;;;;11.60;100.00;92702.78;2099303;28;20036;-81
2023/05/22 00:27:40;;;;;;;22.23;16.38;;;;;;;11.60;100.00;92704.72;2096612;28;20020;-81
2023/05/22 00:28:50;;;;;;;18.23;14.20;;;;;;;11.55;100.00;92706.00;2104696;28;20032;-82
2023/05/22 00:29:59;;;;;;;19.90;16.13;;;;;;;11.44;100.00;92704.84;2108018;28;20140;-81
2023/05/22 00:31:08;;;;;;;19.30;14.48;;;;;;;11.43;100.00;92700.69;2101487;28;20111;-80
2023/05/22 00:32:17;;;;;;;20.63;15.90;;;;;;;11.49;100.00;92701.63;2098919;28;20028;-82
2023/05/22 00:33:26;;;;;;;18.67;14.77;;;;;;;11.52;100.00;92704.19;2109939;28;20121;-81
2023/05/22 00:34:41;;;;;;;17.73;14.67;;;;;;;11.50;100.00;92711.16;2113942;28;20028;-81
2023/05/22 00:35:51;;;;;;;19.67;15.20;;;;;;;11.41;100.00;92695.00;2103716;28;20466;-81
2023/05/22 00:37:01;;;;;;;17.27;15.02;;;;;;;11.37;100.00;92705.06;2100946;28;20067;-81
2023/05/22 00:38:27;;;;;;;20.08;15.05;;;;;;;11.31;100.00;92702.94;2103289;28;20025;-81
2023/05/22 00:39:34;;;;;;;25.20;15.63;;;;;;;11.28;100.00;92698.47;2114220;28;20024;-81
2023/05/22 00:40:44;;;;;;;19.27;14.98;;;;;;;11.26;100.00;92692.78;2122238;28;20711;-83
2023/05/22 00:41:54;;;;;;;20.85;15.15;;;;;;;11.21;100.00;92695.25;2118167;28;20057;-79
2023/05/22 00:43:07;;;;;;;18.00;15.63;;;;;;;11.18;100.00;92704.13;2105658;28;20053;-82
2023/05/22 00:44:16;;;;;;;23.38;16.10;;;;;;;11.18;100.00;92699.53;2100415;28;20035;-81
2023/05/22 00:45:25;;;;;;;20.65;15.45;;;;;;;11.18;100.00;92704.13;2099077;28;20816;-82
2023/05/22 00:46:41;;;;;;;18.23;14.73;;;;;;;11.16;100.00;92709.16;2115080;28;20417;-80
2023/05/22 00:47:51;;;;;;;22.23;14.85;;;;;;;11.14;100.00;92711.50;2105122;28;20441;-80
2023/05/22 00:48:58;;;;;;;18.38;15.20;;;;;;;11.12;100.00;92706.59;2094034;28;20026;-82
2023/05/22 00:50:08;;;;;;;20.13;15.38;;;;;;;11.12;100.00;92713.88;2098930;28;20116;-79
2023/05/22 00:51:16;;;;;;;26.95;15.35;;;;;;;11.15;100.00;92711.09;2107263;28;20107;-80
2023/05/22 00:52:24;;;;;;;21.45;15.35;;;;;;;11.21;100.00;92713.97;2119350;28;20353;-81
2023/05/22 00:53:33;;;;;;;19.27;15.68;;;;;;;11.25;100.00;92707.34;2106221;28;20023;-82
2023/05/22 00:54:41;;;;;;;22.48;16.67;;;;;;;11.25;100.00;92709.25;2101482;28;20036;-82
2023/05/22 00:55:48;;;;;;;21.10;16.02;;;;;;;11.24;100.00;92715.81;2115404;28;20547;-80
2023/05/22 00:56:55;;;;;;;22.98;16.42;;;;;;;11.23;100.00;92704.31;2107383;28;20522;-80
2023/05/22 00:58:06;;;;;;;23.35;16.70;;;;;;;11.24;100.00;92716.53;2092114;28;20071;-79
2023/05/22 00:59:15;;;;;;;21.17;15.70;;;;;;;11.23;100.00;92714.28;2102005;27;20373;-82
2023/05/22 01:00:24;;;;;;;20.13;15.50;;;;;;;11.26;100.00;92716.84;2110143;27;20078;-81
2023/05/22 01:01:32;;;;;;;20.73;15.85;;;;;;;11.29;100.00;92717.94;2123799;27;20486;-82
2023/05/22 01:02:33;;;;;;;23.08;15.23;;;;;;;11.25;100.00;92717.28;2109694;28;20031;-81
2023/05/22 01:03:36;;;;;;;23.73;16.52;;;;;;;11.23;100.00;92714.28;2098812;28;20029;-81
2023/05/22 01:04:37;;;;;;;32.70;16.95;;;;;;;11.26;100.00;92719.53;2100051;28;20025;-82
2023/05/22 01:05:39;;;;;;;20.75;14.88;;;;;;;11.29;100.00;92718.69;2106921;28;20081;-82
2023/05/22 01:06:40;;;;;;;19.88;15.50;;;;;;;11.30;100.00;92717.50;2102944;28;20043;-81
2023/05/22 01:07:41;;;;;;;23.58;16.40;;;;;;;11.28;100.00;92730.56;2098533;28;20059;-82
2023/05/22 01:08:42;;;;;;;20.90;15.77;;;;;;;11.32;100.00;92728.50;2115555;28;20027;-80
2023/05/22 01:09:43;;;;;;;24.65;16.40;;;;;;;11.32;100.00;92730.44;2117514;27;20020;-81
2023/05/22 01:10:44;;;;;;;27.55;16.50;;;;;;;11.33;100.00;92737.31;2108765;28;20020;-81
2023/05/22 01:12:16;;;;;;;18.90;15.55;;;;;;;11.35;100.00;92743.72;2105058;28;20032;-81
2023/05/22 01:13:36;;;;;;;18.13;15.10;;;;;;;11.39;100.00;92734.84;2118338;27;20345;-80
2023/05/22 01:14:53;;;;;;;35.33;16.10;;;;;;;11.42;100.00;92740.09;2107692;28;20472;-81
2023/05/22 01:16:28;;;;;;;22.02;15.95;;;;;;;11.42;100.00;92734.72;2100915;28;20058;-81
2023/05/22 01:17:34;;;;;;;35.63;15.95;;;;;;;11.46;100.00;92738.03;2111859;28;20368;-81
2023/05/22 01:19:11;;;;;;;28.23;15.68;;;;;;;11.50;100.00;92746.72;2107201;28;20129;-81
2023/05/22 01:20:15;;;;;;;19.85;15.25;;;;;;;11.46;100.00;92743.41;2101095;28;20028;-81
2023/05/22 01:21:50;;;;;;;24.95;16.15;;;;;;;11.48;100.00;92746.38;2091276;28;20032;-82
2023/05/22 01:23:17;;;;;;;21.60;16.65;;;;;;;11.43;100.00;92733.53;2107896;28;20015;-82
2023/05/22 01:24:34;;;;;;;25.20;15.10;;;;;;;11.49;100.00;92742.50;2115191;28;20019;-80
2023/05/22 01:25:38;;;;;;;19.63;15.32;;;;;;;11.49;100.00;92739.84;2109802;28;20016;-80
2023/05/22 01:26:48;;;;;;;25.00;16.60;;;;;;;11.45;100.00;92738.47;2115366;28;20538;-80
2023/05/22 01:27:52;;;;;;;22.35;16.13;;;;;;;11.46;100.00;92740.72;2115604;28;20023;-81
2023/05/22 01:29:27;;;;;;;23.05;15.63;;;;;;;11.43;100.00;92735.47;2106766;28;20573;-81
2023/05/22 01:30:40;;;;;;;25.60;14.85;;;;;;;11.44;100.00;92743.06;2109332;27;20026;-81
2023/05/22 01:31:44;;;;;;;20.27;14.88;;;;;;;11.42;100.00;92739.34;2116971;27;20106;-81
2023/05/22 01:32:47;;;;;;;23.98;15.63;;;;;;;11.38;100.00;92749.41;2104698;28;20031;-82
2023/05/22 01:33:51;;;;;;;22.85;15.65;;;;;;;11.35;100.00;92738.34;2109400;27;20027;-79
2023/05/22 01:34:58;;;;;;;22.15;16.52;;;;;;;11.32;100.00;92747.22;2123656;27;20026;-81
2023/05/22 01:36:00;;;;;;;19.90;15.15;;;;;;;11.37;100.00;92748.66;2115914;27;20040;-79
2023/05/22 01:37:03;;;;;;;20.77;15.73;;;;;;;11.40;100.00;92745.09;2114277;27;20460;-80
2023/05/22 01:38:06;;;;;;;23.23;15.57;;;;;;;11.41;100.00;92743.16;2110147;28;20476;-80
2023/05/22 01:39:08;;;;;;;20.45;15.02;;;;;;;11.45;100.00;92739.19;2103164;28;20019;-79
2023/05/22 01:40:11;;;;;;;20.35;15.95;;;;;;;11.44;100.00;92740.38;2098513;28;20020;-82
2023/05/22 01:41:13;;;;;;;22.73;16.55;;;;;;;11.32;100.00;92739.22;2091029;28;20051;-82
2023/05/22 01:42:16;;;;;;;23.42;15.48;;;;;;;11.35;100.00;92745.63;2098432;28;20028;-82
2023/05/22 01:43:18;;;;;;;26.60;16.10;;;;;;;11.38;100.00;92742.13;2115288;28;20468;-80
2023/05/22 01:44:19;;;;;;;23.17;15.85;;;;;;;11.41;100.00;92743.16;2121609;27;20023;-79
2023/05/22 01:45:20;;;;;;;20.10;15.65;;;;;;;11.39;100.00;92745.53;2105494;28;20023;-80
2023/05/22 01:46:25;;;;;;;24.00;15.85;;;;;;;11.41;100.00;92733.22;2104267;28;20028;-80
2023/05/22 01:47:26;;;;;;;24.05;15.80;;;;;;;11.41;100.00;92735.13;2094497;28;20025;-79
2023/05/22 01:48:27;;;;;;;20.02;15.20;;;;;;;11.45;100.00;92739.19;2106606;28;20035;-81
2023/05/22 01:49:29;;;;;;;21.02;16.00;;;;;;;11.46;100.00;92731.94;2105795;28;20031;-79
2023/05/22 01:50:30;;;;;;;21.25;16.55;;;;;;;11.42;100.00;92731.31;2110117;28;20496;-81
2023/05/22 01:51:41;;;;;;;24.13;15.50;;;;;;;11.49;100.00;92736.41;2115144;28;20028;-81
2023/05/22 01:53:11;;;;;;;22.10;15.95;;;;;;;11.49;100.00;92728.38;2116018;27;20108;-80
2023/05/22 01:54:23;;;;;;;25.70;16.42;;;;;;;11.48;100.00;92727.63;2108240;28;20047;-81
2023/05/22 01:55:49;;;;;;;21.35;15.05;;;;;;;11.51;100.00;92734.81;2099667;28;20021;-80
2023/05/22 01:56:59;;;;;;;26.23;15.20;;;;;;;11.52;100.00;92730.97;2110328;28;20055;-82
2023/05/22 01:58:14;;;;;;;21.40;15.15;;;;;;;11.49;100.00;92731.06;2106713;28;20032;-79
2023/05/22 01:59:22;;;;;;;19.73;14.55;;;;;;;11.47;100.00;92731.50;2107053;28;20028;-81
2023/05/22 02:00:26;;;;;;;21.60;14.85;;;;;;;11.43;100.00;92736.22;2100521;28;20024;-82
2023/05/22 02:01:31;;;;;;;20.98;16.13;;;;;;;11.42;100.00;92732.06;2115890;27;20065;-81
2023/05/22 02:02:37;;;;;;;23.58;16.10;;;;;;;11.42;100.00;92739.34;2114955;28;20024;-81
2023/05/22 02:03:40;;;;;;;20.55;16.35;;;;;;;11.42;100.00;92734.72;2107574;28;20043;-79
2023/05/22 02:04:45;;;;;;;24.15;16.38;;;;;;;11.38;100.00;92734.09;2115316;28;20058;-80
2023/05/22 02:05:52;;;;;;;20.40;15.63;;;;;;;11.42;100.00;92733.97;2120402;27;20030;-80
2023/05/22 02:06:53;;;;;;;23.08;15.32;;;;;;;11.42;100.00;92732.06;2123346;27;20023;-79
2023/05/22 02:08:04;;;;;;;20.48;15.77;;;;;;;11.43;100.00;92730.88;2114906;28;20445;-79
2023/05/22 02:09:14;;;;;;;25.08;15.52;;;;;;;11.47;100.00;92733.44;2115778;27;20020;-78
2023/05/22 02:10:22;;;;;;;23.88;15.38;;;;;;;11.49;100.00;92728.38;2123034;27;20025;-80
2023/05/22 02:11:32;;;;;;;23.75;16.45;;;;;;;11.50;100.00;92729.88;2118346;27;20054;-80
2023/05/22 02:12:40;;;;;;;23.50;15.30;;;;;;;11.48;100.00;92726.91;2111203;28;20068;-81
2023/05/22 02:13:49;;;;;;;22.20;15.10;;;;;;;11.51;100.00;92726.78;2114872;27;20083;-80
2023/05/22 02:14:57;;;;;;;22.02;15.18;;;;;;;11.48;100.00;92724.22;2114897;28;20032;-80
2023/05/22 02:16:05;;;;;;;20.83;15.85;;;;;;;11.48;100.00;92735.66;2098809;28;20040;-80
2023/05/22 02:17:12;;;;;;;21.33;15.50;;;;;;;11.46;100.00;92721.97;2099909;28;20417;-79
2023/05/22 02:18:22;;;;;;;19.00;14.68;;;;;;;11.52;100.00;92730.22;2098614;28;20020;-80
2023/05/22 02:21:13;;;;;;;22.00;14.70;;;;;;;11.58;100.00;92726.53;2123722;27;20176;-81
2023/05/22 02:22:20;;;;;;;23.15;15.02;;;;;;;11.66;100.00;92727.06;2122086;28;20035;-81
2023/05/22 02:23:32;;;;;;;29.05;16.35;;;;;;;11.65;100.00;92722.16;2115839;28;20024;-82
2023/05/22 02:24:45;;;;;;;20.77;14.82;;;;;;;11.62;100.00;92723.03;2109140;28;20099;-80
2023/05/22 02:25:56;;;;;;;21.50;15.43;;;;;;;11.59;100.00;92721.97;2114251;28;20016;-79
2023/05/22 02:27:05;;;;;;;21.30;15.05;;;;;;;11.58;100.00;92723.13;2111916;28;20017;-80
2023/05/22 02:28:14;;;;;;;21.73;15.10;;;;;;;11.55;100.00;92721.31;2119077;28;20031;-81
2023/05/22 02:29:24;;;;;;;19.98;15.55;;;;;;;11.55;100.00;92721.31;2108662;28;20082;-80
2023/05/22 02:30:34;;;;;;;19.90;15.32;;;;;;;11.57;100.00;92721.63;2107490;28;20024;-81
2023/05/22 02:31:44;;;;;;;21.48;15.20;;;;;;;11.58;100.00;92715.09;2108178;28;20016;-81
2023/05/22 02:32:56;;;;;;;22.85;15.88;;;;;;;11.58;100.00;92715.84;2104047;28;20016;-81
2023/05/22 02:34:05;;;;;;;19.50;14.93;;;;;;;11.57;100.00;92713.59;2094758;28;20020;-79
2023/05/22 02:35:16;;;;;;;23.63;14.88;;;;;;;11.57;100.00;92716.28;2099019;28;20108;-81
2023/05/22 02:36:25;;;;;;;21.45;15.70;;;;;;;11.56;100.00;92715.53;2100095;28;20156;-81
2023/05/22 02:37:33;;;;;;;20.83;15.32;;;;;;;11.56;100.00;92712.13;2105636;28;20491;-82
2023/05/22 02:38:43;;;;;;;21.40;15.00;;;;;;;11.56;100.00;92710.19;2116997;28;20031;-81
2023/05/22 02:39:50;;;;;;;21.45;15.77;;;;;;;11.57;100.00;92711.66;2112992;28;20547;-82
2023/05/22 02:41:00;;;;;;;20.48;15.57;;;;;;;11.58;100.00;92718.53;2106282;28;20032;-80
2023/05/22 02:42:10;;;;;;;22.92;16.17;;;;;;;11.55;100.00;92718.66;2105557;28;20459;-80
2023/05/22 02:43:22;;;;;;;19.75;15.60;;;;;;;11.56;100.00;92710.19;2105651;28;20024;-81
2023/05/22 02:44:32;;;;;;;19.27;15.57;;;;;;;11.59;100.00;92713.94;2105460;28;20086;-82
2023/05/22 02:45:42;;;;;;;22.55;16.63;;;;;;;11.54;100.00;92709.84;2105669;28;20107;-81
2023/05/22 02:46:50;;;;;;;22.15;15.35;;;;;;;11.53;100.00;92710.28;2105543;28;20028;-79
2023/05/22 02:48:02;;;;;;;19.95;15.77;;;;;;;11.52;100.00;92717.56;2097645;28;20435;-83
2023/05/22 02:49:12;;;;;;;21.58;15.02;;;;;;;11.54;100.00;92712.53;2112295;28;20031;-82
2023/05/22 02:50:21;;;;;;;20.80;14.98;;;;;;;11.64;100.00;92721.41;2105581;28;20460;-80
2023/05/22 02:51:30;;;;;;;18.42;13.63;;;;;;;11.64;100.00;92713.38;2105439;28;20067;-80
2023/05/22 02:52:39;;;;;;;20.38;13.73;;;;;;;11.66;100.00;92715.63;2118047;28;20452;-82
2023/05/22 02:53:50;;;;;;;18.90;14.68;;;;;;;11.68;100.00;92714.03;2114445;28;20031;-80
2023/05/22 02:54:55;;;;;;;;;;;;;;;11.59;100.00;92712.00;2113202;28;20032;-80
2023/05/22 02:56:04;;;;;;;22.52;15.93;;;;;;;11.63;100.00;92709.19;2105410;28;20326;-80
2023/05/22 02:57:13;;;;;;;24.03;15.87;;;;;;;11.63;100.00;92709.19;2114357;28;20024;-81
2023/05/22 02:58:28;;;;;;;24.90;15.55;;;;;;;11.63;100.00;92709.19;2121080;28;21036;-81
2023/05/22 02:59:37;;;;;;;26.67;15.23;;;;;;;11.62;100.00;92715.00;2105878;28;20376;-81
2023/05/22 03:00:47;;;;;;;20.00;14.43;;;;;;;11.63;100.00;92708.44;2101403;28;20487;-81
2023/05/22 03:01:56;;;;;;;19.85;14.98;;;;;;;11.62;100.00;92712.31;2105333;28;20028;-79
2023/05/22 03:03:06;;;;;;;21.00;13.88;;;;;;;11.70;100.00;92700.19;2113648;28;20563;-82
2023/05/22 03:04:11;;;;;;;17.50;13.50;;;;;;;11.78;100.00;92701.47;2120561;28;20019;-80
2023/05/22 03:05:18;;;;;;;20.67;12.70;;;;;;;11.81;100.00;92705.97;2112826;28;20031;-82
2023/05/22 03:06:28;;;;;;;17.63;12.98;;;;;;;11.74;100.00;92703.50;2113122;28;20472;-80
2023/05/22 03:07:35;;;;;;;21.45;13.70;;;;;;;11.70;100.00;92697.50;2113734;28;20112;-81
2023/05/22 03:08:43;;;;;;;18.58;13.00;;;;;;;11.71;100.00;92702.44;2098794;28;20119;-80
2023/05/22 03:09:52;;;;;;;18.75;13.68;;;;;;;11.72;100.00;92705.84;2105736;28;20472;-80
2023/05/22 03:11:00;;;;;;;19.05;14.55;;;;;;;11.72;100.00;92706.63;2104528;28;20035;-81
2023/05/22 03:12:08;;;;;;;24.02;14.48;;;;;;;11.72;100.00;92711.19;2113378;28;20506;-79
2023/05/22 03:13:18;;;;;;;20.30;14.63;;;;;;;11.71;100.00;92707.78;2121447;27;20081;-82
2023/05/22 03:14:28;;;;;;;18.33;12.98;;;;;;;11.68;100.00;92707.91;2112060;28;20487;-81
2023/05/22 03:15:37;;;;;;;20.77;15.43;;;;;;;11.67;100.00;92715.19;2113483;28;20081;-80
2023/05/22 03:16:57;;;;;;;20.60;14.98;;;;;;;11.58;100.00;92707.81;2121313;28;20019;-81
2023/05/22 03:18:06;;;;;;;21.58;14.60;;;;;;;11.64;100.00;92715.31;2112172;28;20099;-80
2023/05/22 03:19:19;;;;;;;17.20;14.02;;;;;;;11.65;100.00;92714.88;2105963;28;20028;-82
2023/05/22 03:20:23;;;;;;;27.98;13.63;;;;;;;11.67;100.00;92714.44;2113377;28;20077;-81
2023/05/22 03:21:35;;;;;;;18.15;14.43;;;;;;;11.66;100.00;92718.31;2104613;28;20029;-81
2023/05/22 03:22:45;;;;;;;17.92;13.57;;;;;;;11.64;100.00;92724.09;2106643;28;20026;-81
2023/05/22 03:23:55;;;;;;;22.58;14.35;;;;;;;11.60;100.00;92720.78;2113732;28;20511;-81
2023/05/22 03:25:05;;;;;;;19.25;14.45;;;;;;;11.60;100.00;92720.78;2105177;28;20070;-83
2023/05/22 03:26:14;;;;;;;24.60;15.05;;;;;;;11.58;100.00;92723.88;2103288;28;20031;-80
2023/05/22 03:27:22;;;;;;;20.55;14.13;;;;;;;11.53;100.00;92721.00;2100009;28;20024;-82
2023/05/22 03:28:30;;;;;;;18.05;14.30;;;;;;;11.55;100.00;92724.00;2120953;28;20046;-82
2023/05/22 03:29:37;;;;;;;19.13;13.43;;;;;;;11.47;100.00;92725.41;2111985;28;20027;-81
2023/05/22 03:30:45;;;;;;;18.27;13.80;;;;;;;11.53;100.00;92729.78;2113306;28;20023;-83
2023/05/22 03:31:55;;;;;;;18.85;13.40;;;;;;;11.50;100.00;92727.97;2119108;28;20023;-80
2023/05/22 03:33:04;;;;;;;20.65;12.93;;;;;;;11.52;100.00;92725.59;2106382;28;20450;-82
2023/05/22 03:34:11;;;;;;;21.58;13.73;;;;;;;11.50;100.00;92719.16;2100328;28;20074;-81
2023/05/22 03:35:20;;;;;;;21.58;13.63;;;;;;;11.51;100.00;92731.41;2107545;28;20389;-80
2023/05/22 03:36:28;;;;;;;16.83;12.93;;;;;;;11.48;100.00;92729.56;2091055;28;20045;-81
2023/05/22 03:37:36;;;;;;;20.23;13.32;;;;;;;11.47;100.00;92723.47;2096537;28;20060;-81
2023/05/22 03:38:42;;;;;;;16.98;13.00;;;;;;;11.50;100.00;92735.22;2098354;28;20021;-80
2023/05/22 03:39:56;;;;;;;23.48;13.57;;;;;;;11.50;100.00;92727.19;2091329;28;20056;-81
2023/05/22 03:41:05;;;;;;;25.23;14.50;;;;;;;11.40;100.00;92728.28;2112136;28;20043;-82
2023/05/22 03:42:13;;;;;;;20.85;13.80;;;;;;;11.39;100.00;92724.88;2114748;28;20028;-81
2023/05/22 03:43:21;;;;;;;16.20;12.80;;;;;;;11.43;100.00;92730.88;2107643;28;20422;-81
2023/05/22 03:44:30;;;;;;;19.52;13.50;;;;;;;11.45;100.00;92722.41;2115096;28;20024;-81
2023/05/22 03:45:36;;;;;;;14.75;12.88;;;;;;;11.46;100.00;92721.25;2105921;28;20019;-81
2023/05/22 03:46:42;;;;;;;19.00;12.73;;;;;;;11.48;100.00;92724.22;2091455;28;20025;-82
2023/05/22 03:47:51;;;;;;;18.92;12.75;;;;;;;11.47;100.00;92715.44;2099741;28;20035;-81
2023/05/22 03:48:59;;;;;;;18.10;13.50;;;;;;;11.42;100.00;92724.03;2098897;28;20074;-82
2023/05/22 03:50:08;;;;;;;21.33;13.80;;;;;;;11.42;100.00;92718.66;2106490;28;20043;-82
2023/05/22 03:51:17;;;;;;;19.42;13.40;;;;;;;11.44;100.00;92713.63;2113527;28;20068;-82
2023/05/22 03:52:26;;;;;;;20.80;13.10;;;;;;;11.44;100.00;92713.63;2114900;28;20031;-83
2023/05/22 03:53:35;;;;;;;18.38;13.32;;;;;;;11.48;100.00;92711.59;2114725;28;20034;-82
2023/05/22 03:54:42;;;;;;;17.80;13.75;;;;;;;11.47;100.00;92714.69;2114477;28;20024;-81
2023/05/22 03:55:52;;;;;;;18.35;13.55;;;;;;;11.49;100.00;92715.00;2107254;28;20085;-82
2023/05/22 03:56:56;;;;;;;18.70;13.02;;;;;;;11.50;100.00;92713.81;2114917;28;20055;-80
2023/05/22 03:58:01;;;;;;;17.42;12.95;;;;;;;11.48;100.00;92713.50;2115483;28;20031;-81
2023/05/22 03:59:10;;;;;;;18.40;13.68;;;;;;;11.48;100.00;92716.19;2115407;28;20047;-81
2023/05/22 04:00:18;;;;;;;16.15;12.32;;;;;;;11.49;100.00;92717.69;2114598;28;20433;-80
2023/05/22 04:01:23;;;;;;;18.38;12.60;;;;;;;11.47;100.00;92720.06;2106297;28;20043;-80
2023/05/22 04:02:33;;;;;;;21.48;13.00;;;;;;;11.44;100.00;92720.91;2109878;28;20023;-80
2023/05/22 04:03:40;;;;;;;;;;;;;;;11.45;100.00;92717.78;2098517;28;20040;-80
2023/05/22 04:04:48;;;;;;;15.82;12.65;;;;;;;11.40;100.00;92715.66;2092971;28;19909;-83
2023/05/22 04:05:55;;;;;;;15.50;12.68;;;;;;;11.46;100.00;92715.88;2110449;28;20526;-80
2023/05/22 04:07:01;;;;;;;20.23;12.73;;;;;;;11.47;100.00;92717.38;2106559;28;20483;-80
2023/05/22 04:08:10;;;;;;;17.75;13.57;;;;;;;11.43;100.00;92725.50;2098019;28;20024;-82
2023/05/22 04:09:17;;;;;;;14.23;12.30;;;;;;;11.42;100.00;92720.59;2104418;27;20057;-83
2023/05/22 04:10:25;;;;;;;17.33;12.75;;;;;;;11.42;100.00;92721.34;2121303;27;20479;-80
2023/05/22 04:11:36;;;;;;;19.33;12.77;;;;;;;11.46;100.00;92723.91;2098029;28;20029;-80
2023/05/22 04:12:42;;;;;;;;;;;;;;;11.46;100.00;92724.66;2098755;28;20567;-82
2023/05/22 04:13:53;;;;;;;17.70;12.48;;;;;;;11.45;100.00;92728.50;2106577;28;20303;-81
2023/05/22 04:15:02;;;;;;;18.95;13.23;;;;;;;11.42;100.00;92725.94;2106027;28;20024;-80
2023/05/22 04:16:16;;;;;;;17.17;14.63;;;;;;;11.40;100.00;92729.03;2098922;28;20020;-82
2023/05/22 04:17:23;;;;;;;16.95;12.27;;;;;;;11.40;100.00;92733.66;2093462;28;20028;-80
2023/05/22 04:18:34;;;;;;;16.88;12.35;;;;;;;11.46;100.00;92735.38;2106473;28;20028;-80
2023/05/22 04:19:43;;;;;;;16.73;12.32;;;;;;;11.54;100.00;92725.16;2113737;28;20027;-82
2023/05/22 04:20:51;;;;;;;17.48;12.55;;;;;;;11.52;100.00;92733.63;2102972;28;20090;-80
2023/05/22 04:21:58;;;;;;;16.30;12.80;;;;;;;11.48;100.00;92735.66;2104136;28;20807;-81
2023/05/22 04:23:09;;;;;;;16.20;12.68;;;;;;;11.52;100.00;92727.53;2104593;28;20169;-81
2023/05/22 04:24:18;;;;;;;17.48;12.75;;;;;;;11.46;100.00;92735.38;2101479;28;20024;-80
2023/05/22 04:25:26;;;;;;;17.73;12.20;;;;;;;11.48;100.00;92735.66;2109652;28;20448;-82
2023/05/22 04:26:36;;;;;;;18.90;12.55;;;;;;;11.46;100.00;92734.63;2106616;28;20024;-80
2023/05/22 04:27:38;;;;;;;17.15;13.52;;;;;;;11.50;100.00;92735.22;2106081;28;20515;-83
2023/05/22 04:28:48;;;;;;;20.33;13.38;;;;;;;11.50;100.00;92737.91;2105340;28;20521;-80
2023/05/22 04:29:58;;;;;;;15.82;12.95;;;;;;;11.50;100.00;92741.34;2114302;28;20027;-82
2023/05/22 04:31:13;;;;;;;18.85;13.88;;;;;;;11.49;100.00;92739.09;2111838;28;20023;-80
2023/05/22 04:32:25;;;;;;;17.35;13.05;;;;;;;11.51;100.00;92736.75;2104527;28;20027;-82
2023/05/22 04:33:35;;;;;;;17.42;13.00;;;;;;;11.51;100.00;92736.75;2105944;28;20062;-81
2023/05/22 04:34:43;;;;;;;16.52;12.75;;;;;;;11.67;100.00;92735.84;2112969;28;20034;-80
2023/05/22 04:35:53;;;;;;;13.88;12.25;;;;;;;11.59;100.00;92741.44;2114244;28;20023;-80
2023/05/22 04:37:02;;;;;;;16.67;11.90;;;;;;;11.66;100.00;92737.03;2105118;28;20723;-81
2023/05/22 04:38:10;;;;;;;19.77;11.70;;;;;;;11.55;100.00;92746.16;2099177;28;20113;-80
2023/05/22 04:39:21;;;;;;;15.60;12.52;;;;;;;11.54;100.00;92739.28;2102338;28;20017;-83
2023/05/22 04:40:32;;;;;;;15.05;11.32;;;;;;;11.53;100.00;92739.72;2095304;28;20021;-80
2023/05/22 04:41:40;;;;;;;15.32;12.23;;;;;;;11.51;100.00;92747.47;2094872;28;20013;-80
2023/05/22 04:42:49;;;;;;;19.23;12.40;;;;;;;11.51;100.00;92750.13;2091393;28;20017;-81
2023/05/22 04:44:02;;;;;;;14.45;11.57;;;;;;;11.51;100.00;92756.22;2103303;28;20050;-83
2023/05/22 04:45:12;;;;;;;16.30;12.68;;;;;;;11.55;100.00;92748.09;2113576;28;20075;-80
2023/05/22 04:46:21;;;;;;;;;;;;;;;11.51;100.00;92750.88;2094444;28;20025;-81
2023/05/22 04:47:30;;;;;;;14.15;12.05;;;;;;;11.51;100.00;92745.53;2093668;28;20389;-83
2023/05/22 04:48:40;;;;;;;16.33;12.15;;;;;;;11.54;100.00;92743.91;2093837;28;20083;-81
2023/05/22 04:49:50;;;;;;;20.63;12.95;;;;;;;11.46;100.00;92742.66;2092308;28;20036;-80
2023/05/22 04:50:56;;;;;;;;;;;;;;;11.51;100.00;92742.84;2106229;28;20089;-82
2023/05/22 04:52:03;;;;;;;20.23;12.57;;;;;;;11.45;100.00;92757.19;2102605;28;19998;-82
2023/05/22 04:53:14;;;;;;;14.82;12.18;;;;;;;11.49;100.00;92750.53;2100072;28;20024;-82
2023/05/22 04:54:19;;;;;;;14.57;11.88;;;;;;;11.49;100.00;92755.16;2104428;28;20042;-81
2023/05/22 04:55:28;;;;;;;15.27;12.00;;;;;;;11.48;100.00;92759.75;2103457;28;20056;-80
2023/05/22 04:56:36;;;;;;;15.82;11.93;;;;;;;11.45;100.00;92752.59;2108794;28;20023;-80
2023/05/22 04:57:46;;;;;;;14.00;11.75;;;;;;;11.47;100.00;92758.28;2104158;28;20008;-80
2023/05/22 04:58:55;;;;;;;17.00;11.50;;;;;;;11.45;100.00;92755.25;2108042;28;20040;-80
2023/05/22 05:00:03;;;;;;;18.83;11.45;;;;;;;11.48;100.00;92759.00;2107573;28;20426;-82
2023/05/22 05:01:11;;;;;;;14.38;12.30;;;;;;;11.43;100.00;92762.97;2108468;28;20034;-81
2023/05/22 05:02:22;;;;;;;16.73;13.05;;;;;;;11.46;100.00;92758.72;2099215;28;20127;-80
2023/05/22 05:03:29;;;;;;;15.07;11.95;;;;;;;11.56;100.00;92757.63;2098589;28;20039;-82
2023/05/22 05:04:38;;;;;;;18.75;12.15;;;;;;;11.62;100.00;92760.50;2096459;28;20035;-82
2023/05/22 05:05:46;;;;;;;16.75;12.00;;;;;;;11.55;100.00;92759.56;2106720;28;20074;-80
2023/05/22 05:07:04;;;;;;;17.90;12.15;;;;;;;11.52;100.00;92765.75;2097899;28;20036;-83
2023/05/22 05:08:13;;;;;;;13.70;11.50;;;;;;;11.51;100.00;92758.91;2101029;28;20031;-81
2023/05/22 05:09:21;;;;;;;14.27;10.73;;;;;;;11.49;100.00;92753.22;2097857;28;20050;-81
2023/05/22 05:10:24;;;;;;;17.60;11.68;;;;;;;11.49;100.00;92758.56;2098866;28;20831;-80
2023/05/22 05:11:25;;;;;;;15.55;12.30;;;;;;;11.44;100.00;92763.72;2104469;28;20032;-79
2023/05/22 05:12:27;;;;;;;18.40;12.32;;;;;;;11.44;100.00;92761.78;2096590;28;20032;-79
2023/05/22 05:13:27;;;;;;;15.90;12.23;;;;;;;11.47;100.00;92763.63;2088429;28;20111;-80
2023/05/22 05:14:28;;;;;;;16.02;12.18;;;;;;;11.43;100.00;92757.63;2096533;28;20029;-82
2023/05/22 05:15:30;;;;;;;14.18;12.00;;;;;;;11.39;100.00;92758.91;2113507;28;20099;-83
2023/05/22 05:16:31;;;;;;;15.48;12.30;;;;;;;11.34;100.00;92762.88;2105149;28;20055;-80